Flight Track Log - Related Links

Times and Time Zones

All times are in EDT time to prevent confusion due to time zone crossing. See the CTL14 flight status page for this flight to view local times or setup timezone preferences in your user account.

Time Position Orientation Groundspeed Altitude Reporting Facility
EDT Latitude Longitude Course Direction KTS MPH feet Rate Location/Type
Tue 11:08:01 PM 40.5094 -88.8617 24° Northeast 148 170 2,700  Level Chicago Center
Tue 11:09:02 PM 40.5594 -88.8442 15° North 156 180 3,800 942 Climbing Chicago Center
Tue 11:10:02 PM 40.6050 -88.8333 10° North 164 189 4,600 744 Climbing Chicago Center
Tue 11:11:03 PM 40.6508 -88.8236 North 166 191 5,300 639 Climbing Chicago Center
Tue 11:12:04 PM 40.6950 -88.8178 North 163 188 5,900 541 Climbing Chicago Center
Tue 11:13:00 PM 40.6916 -88.7917 24° Northeast  Level FlightAware Approximate
Tue 11:13:05 PM 40.7394 -88.8086 North 162 186 6,400  Level Chicago Center
Tue 11:14:06 PM 40.7858 -88.7953 12° North 167 192 6,800 298 Climbing Chicago Center
Tue 11:15:06 PM 40.8325 -88.7814 13° North 171 197 7,000 99 Climbing Chicago Center
Tue 11:16:07 PM 40.8842 -88.7689 10° North 182 209 7,000  Level Chicago Center
Tue 11:17:08 PM 40.9381 -88.7572 North 193 222 7,000 -49 Level Chicago Center
Tue 11:18:09 PM 40.9903 -88.7444 10° North 192 221 6,900 -50 Descending Chicago Center
Tue 11:19:09 PM 41.0436 -88.7303 11° North 195 224 6,900  Level Chicago Center
Tue 11:20:10 PM 41.1069 -88.7153 10° North 193 222 6,900  Level Chicago Center
Tue 11:21:11 PM 41.1597 -88.7042 North 193 222 6,900  Level Chicago Center
Tue 11:22:12 PM 41.2119 -88.6928 North 191 220 6,900 -264 Level Chicago Center
Tue 11:24:13 PM 41.3219 -88.6711 North 200 230 6,100 -330 Descending Chicago Center
Tue 11:25:14 PM 41.3767 -88.6617 North 199 229 5,900 -98 Descending Chicago Center
Tue 11:26:15 PM 41.4294 -88.6506 North 194 223 5,900  Level Chicago Center
Tue 11:27:16 PM 41.4803 -88.6403 North 189 217 5,900 50 Level Chicago Center
Tue 11:28:16 PM 41.5317 -88.6292 North 187 215 6,000  Climbing Chicago Center
Tue 11:29:17 PM 41.5836 -88.6183 North 189 217 5,900 -49 Descending Chicago Center
Tue 11:30:18 PM 41.6306 -88.5825 30° Northeast 193 222 5,900 -246 Level Chicago Center
Tue 11:31:19 PM 41.6794 -88.5475 28° Northeast 197 227 5,400 -541 Descending Chicago Center
Tue 11:32:20 PM 41.7325 -88.5125 26° Northeast 208 239 4,800 -639 Descending Chicago Center
Tue 11:33:21 PM 41.7964 -88.4675 28° Northeast 214 246 4,100 -446 Descending Chicago Center
Tue 11:34:21 PM 41.8500 -88.4328 26° Northeast 214 246 3,900 -99 Descending Chicago Center
Tue 11:35:22 PM 41.9011 -88.3986 26° Northeast 211 243 3,900  Level Chicago Center
Tue 11:36:23 PM 41.9514 -88.3653 26° Northeast 207 238 3,900 -148 Level Chicago Center
Tue 11:37:24 PM 42.0044 -88.3389 20° North 206 237 3,600 -492 Descending Chicago Center
Tue 11:38:25 PM 42.0467 -88.2831 44° Northeast 213 245 2,900 -590 Descending Chicago Center
Tue 11:39:26 PM 42.0864 -88.2225 49° Northeast 217 250 2,400 -492 Descending Chicago Center

Login

Don't have an account? Register now (free) for customized features, flight alerts, and more!